Aeroporto :
LOGIN :

Iscrizione | Disclaimer

   EN    FR    IT 

 










Sommario :    VFR   VFR Marginale   IFR   IFR Intensivo   IFR Molto Intensivo
Visibilità : 
Base nubi : 
>= 8 km
>= 3000ft
5 / 8 km
1000 / 3000 ft
1500m / 5 km
500 / 1000 ft
800 / 1500m
200 / 500 ft
< 800m
< 200 ft
Simboli :   Temporali  Nebbia  Neve Forte  Precipitazioni Forti  Vento > 20 kt
SIGMETs :   Varie  Temporali  Ghiacco  Turbolenza  Onda orograficha  Ceneri Vulcaniche







- Altitudine del aeroporto : 464 ft
- Codice IATA : EVX
- Carte del aeroporto


LFOE - Evreux

ULTIMO METAR :
  • 200330Z AUTO 35009KT 310V020 7000 -DZ BKN006 OVC011 08/08 Q1014

METARs OBSOLETI :
  • 200300Z AUTO 33007KT 290V020 5000 -DZ BR OVC005 09/08 Q1014
  • 200230Z AUTO 34006KT 300V360 4900 -RA BR OVC005 09/08 Q1014
  • 200200Z AUTO 33006KT 3700 -DZ BR OVC004 09/08 Q1014
  • 200130Z AUTO 34006KT 300V010 3500 -DZ BR OVC004 09/08 Q1014
  • 200100Z AUTO 33006KT 300V360 4900 BR OVC005 09/09 Q1014

TAF TAF LFOE
Valido dal 20 a 03 ore il 21 a 03 ore UTC


200200Z 2003/2103 33006KT 5000 -DZ OVC005
TEMPO 2003/2012 1200 DZRA OVC002
BECMG 2011/2013 05010KT 9999 NSW BKN012
TEMPO 2011/2021 2000 RADZ OVC006
BECMG 2021/2023 SCT017
Nessun NOTAM noto per questo aeroporto.



MetMap, La meteo Aeronautica in un colpo d'occhio ! - Copyright ORBIFLY Dicembre 2007 - Disclaimer

ORBIFLY MET'MAP TEAM :

Programmazione e sviluppo : Alexandra Zaïnal
Concezione e sviluppo : Baudouin d'Aumeries
Co-Programmazione e sviluppo : Marc-Olivier Méhu
Supporto tecnico e logistico : Manuel Goepfert
Aiuto per la traduzione : Arnaldo La Scala

Contatto : metmap@orbifly.com




FONTI E CREDITI :

   NOAA